Time;durP1;ratioP1;P1;durP2;ratioP2;P2;SDS_P1;SDS_P2;PMS_P1;PMS_P2;Temp;Humidity;BMP_temperature;BMP_pressure;BME280_temperature;BME280_humidity;BME280_pressure;Samples;Min_cycle;Max_cycle;Signal;HPM_P1;HPM_P2
2023/04/14 05:17:22;;;;;;;11.40;7.63;;;8.60;99.90;;;;;;6020062;23;20276;31
2023/04/14 05:19:49;;;;;;;11.00;7.80;;;8.60;99.90;;;;;;4882004;29;20259;-91
2023/04/14 05:22:16;;;;;;;15.63;8.30;;;8.60;99.90;;;;;;4876494;29;20244;-91
2023/04/14 05:24:49;;;;;;;14.90;8.53;;;8.60;99.90;;;;;;4883319;29;20230;-92
2023/04/14 05:27:16;;;;;;;14.63;9.07;;;8.60;1.00;;;;;;4883529;29;20204;-92
2023/04/14 05:29:43;;;;;;;15.67;9.50;;;8.60;1.00;;;;;;4883423;29;20264;-92
2023/04/14 05:32:11;;;;;;;13.73;8.03;;;8.60;1.00;;;;;;4883227;29;20241;-92
2023/04/14 05:34:40;;;;;;;12.90;8.80;;;8.70;99.90;;;;;;4883271;29;20201;-91
2023/04/14 05:37:07;;;;;;;12.47;9.17;;;8.70;99.90;;;;;;4875208;29;20242;-91
2023/04/14 05:39:34;;;;;;;13.73;8.30;;;8.80;99.90;;;;;;4868892;29;20658;-91
2023/04/14 05:42:01;;;;;;;18.00;8.53;;;8.80;1.00;;;;;;4883095;29;20248;-92
2023/04/14 05:44:27;;;;;;;16.50;9.53;;;8.80;1.00;;;;;;4882911;29;20315;-91
2023/04/14 05:46:55;;;;;;;16.40;10.10;;;8.80;1.00;;;;;;4882957;29;20233;-92
2023/04/14 05:49:22;;;;;;;13.50;9.27;;;8.90;1.00;;;;;;4883229;29;20259;-92
2023/04/14 05:51:50;;;;;;;14.70;9.97;;;9.00;1.00;;;;;;4882733;29;20242;-91
2023/04/14 05:54:17;;;;;;;17.87;10.70;;;9.00;1.00;;;;;;4882791;29;20241;-91
2023/04/14 05:56:44;;;;;;;16.47;11.60;;;9.10;1.00;;;;;;4882910;29;20206;-91
2023/04/14 05:59:11;;;;;;;19.10;12.73;;;9.20;1.00;;;;;;4882531;29;20221;-91
2023/04/14 06:01:37;;;;;;;21.10;12.17;;;9.20;1.00;;;;;;4882378;29;20312;-91
2023/04/14 06:04:04;;;;;;;21.73;13.30;;;9.30;1.00;;;;;;4882429;29;20202;-92
2023/04/14 06:06:32;;;;;;;21.00;13.40;;;9.40;1.00;;;;;;4882372;29;20213;-90
2023/04/14 06:09:00;;;;;;;17.47;11.60;;;9.40;1.00;;;;;;4882404;29;20199;-91
2023/04/14 06:11:27;;;;;;;22.47;13.30;;;9.40;1.00;;;;;;4881738;29;20234;-91
2023/04/14 06:13:54;;;;;;;19.63;12.53;;;9.40;1.00;;;;;;4882570;29;20296;-91
2023/04/14 06:16:21;;;;;;;16.47;11.17;;;9.50;1.00;;;;;;4882138;29;20556;-93
2023/04/14 06:18:48;;;;;;;19.43;12.70;;;9.50;1.00;;;;;;4882026;29;20257;-91
2023/04/14 06:21:15;;;;;;;22.77;14.43;;;9.50;1.00;;;;;;4882102;29;20210;-91
2023/04/14 06:23:42;;;;;;;22.57;13.97;;;9.50;1.00;;;;;;4882094;29;20238;-91
2023/04/14 06:26:11;;;;;;;21.80;14.50;;;9.50;1.00;;;;;;4882170;29;20633;-93
2023/04/14 06:28:38;;;;;;;23.67;14.00;;;9.50;1.00;;;;;;4882120;29;20205;-91
2023/04/14 06:31:05;;;;;;;22.63;13.13;;;9.50;1.00;;;;;;4881944;29;20227;-93
2023/04/14 06:33:32;;;;;;;27.10;14.13;;;9.60;1.00;;;;;;4881844;29;20734;-92
2023/04/14 06:35:59;;;;;;;24.40;15.40;;;9.50;1.00;;;;;;4882250;29;20270;-92
2023/04/14 06:38:26;;;;;;;22.70;13.80;;;9.60;1.00;;;;;;4881965;29;21160;-92
2023/04/14 06:40:53;;;;;;;19.83;12.00;;;9.60;1.00;;;;;;4882637;29;20332;-91
2023/04/14 06:43:21;;;;;;;25.00;16.00;;;9.60;99.90;;;;;;4881527;29;20244;-93
2023/04/14 06:45:49;;;;;;;21.87;14.23;;;9.60;99.90;;;;;;4882068;29;20238;-92
2023/04/14 06:48:16;;;;;;;23.47;14.37;;;9.60;99.90;;;;;;4878800;29;20680;-93
2023/04/14 06:50:43;;;;;;;19.33;12.93;;;9.60;99.90;;;;;;4863452;29;20230;-91
2023/04/14 06:53:10;;;;;;;21.57;12.67;;;9.60;99.90;;;;;;4863053;29;20237;-90
2023/04/14 06:55:41;;;;;;;19.17;13.37;;;9.60;99.90;;;;;;4876333;29;20243;-90
2023/04/14 06:58:07;;;;;;;24.13;15.03;;;9.60;99.90;;;;;;4881249;29;20202;-92
2023/04/14 07:00:36;;;;;;;25.97;15.77;;;9.60;99.90;;;;;;4881460;29;20223;-92
2023/04/14 07:03:03;;;;;;;25.03;15.93;;;9.60;99.90;;;;;;4881601;29;20251;-91
2023/04/14 07:05:29;;;;;;;24.07;17.00;;;9.60;99.90;;;;;;4881477;29;20630;-91
2023/04/14 07:07:56;;;;;;;28.23;16.37;;;9.60;99.90;;;;;;4881572;29;20270;-91
2023/04/14 07:10:23;;;;;;;25.80;16.57;;;9.60;99.90;;;;;;4881329;29;20234;-91
2023/04/14 07:12:50;;;;;;;25.40;15.50;;;9.60;99.90;;;;;;4881342;29;20239;-91
2023/04/14 07:15:17;;;;;;;27.43;17.03;;;9.60;99.90;;;;;;4881743;29;20252;-91
2023/04/14 07:17:45;;;;;;;24.10;15.47;;;9.60;99.90;;;;;;4881467;29;20215;-92
2023/04/14 07:20:13;;;;;;;26.77;16.37;;;9.60;99.90;;;;;;4880906;29;20261;-91
2023/04/14 07:22:40;;;;;;;23.83;15.50;;;9.60;99.90;;;;;;4881101;29;20685;-91
2023/04/14 07:25:07;;;;;;;26.30;16.50;;;9.60;99.90;;;;;;4881102;29;20261;-92
2023/04/14 07:27:34;;;;;;;27.90;16.50;;;9.60;99.90;;;;;;4877088;29;20235;-91
2023/04/14 07:30:01;;;;;;;26.87;14.90;;;9.60;99.90;;;;;;4881242;29;20234;-91
2023/04/14 07:32:28;;;;;;;31.47;16.93;;;9.60;99.90;;;;;;4881029;29;20198;-90
2023/04/14 07:34:57;;;;;;;26.73;16.70;;;9.70;99.90;;;;;;4880571;29;20212;-91
2023/04/14 07:37:24;;;;;;;21.40;14.30;;;9.70;99.90;;;;;;4881035;29;20203;-91
2023/04/14 07:39:51;;;;;;;28.80;17.60;;;9.80;99.90;;;;;;4880890;29;20683;-92
2023/04/14 07:42:18;;;;;;;26.07;16.03;;;9.90;99.90;;;;;;4880569;29;20198;-93
2023/04/14 07:44:45;;;;;;;24.67;16.30;;;9.90;99.90;;;;;;4880935;29;20226;-92
2023/04/14 07:47:12;;;;;;;27.33;17.00;;;10.00;99.90;;;;;;4863653;29;20249;-91
2023/04/14 07:49:39;;;;;;;22.30;13.53;;;10.10;99.90;;;;;;4862653;29;20239;-92
2023/04/14 07:52:07;;;;;;;22.30;13.83;;;10.10;99.90;;;;;;4871046;29;20680;-91
2023/04/14 07:54:34;;;;;;;24.63;16.13;;;10.20;1.00;;;;;;4880667;29;20207;-91
2023/04/14 07:57:01;;;;;;;25.87;16.27;;;10.20;1.00;;;;;;4880711;29;20200;-91
2023/04/14 07:59:30;;;;;;;27.17;17.37;;;10.20;1.00;;;;;;4880661;29;20242;-91
2023/04/14 08:01:57;;;;;;;27.77;17.93;;;10.30;1.00;;;;;;4880887;29;20208;-91
2023/04/14 08:04:24;;;;;;;25.87;14.90;;;10.30;1.00;;;;;;4880707;29;20234;-92
2023/04/14 08:06:51;;;;;;;28.50;18.90;;;10.30;1.00;;;;;;4887687;29;20210;-92
2023/04/14 08:09:20;;;;;;;27.50;16.33;;;10.30;1.00;;;;;;4899373;29;20226;-93
2023/04/14 08:11:47;;;;;;;29.17;17.90;;;10.30;1.00;;;;;;4885125;29;20319;-92
2023/04/14 08:14:14;;;;;;;31.40;19.33;;;10.30;1.00;;;;;;4880887;29;20672;-92
2023/04/14 08:16:41;;;;;;;28.23;18.40;;;10.40;1.00;;;;;;4880794;29;20199;-92
2023/04/14 08:19:08;;;;;;;32.17;18.57;;;10.40;1.00;;;;;;4880508;29;20223;-92
2023/04/14 08:21:35;;;;;;;31.80;18.47;;;10.40;1.00;;;;;;4880598;29;20196;-91
2023/04/14 08:24:01;;;;;;;32.97;18.87;;;10.40;1.00;;;;;;4880823;29;20204;-92
2023/04/14 08:26:30;;;;;;;28.43;18.93;;;10.40;1.00;;;;;;4880655;29;20227;-91
2023/04/14 08:28:57;;;;;;;26.27;18.03;;;10.50;1.00;;;;;;4880354;29;20239;-92
2023/04/14 08:31:25;;;;;;;27.57;18.13;;;10.50;1.00;;;;;;4880785;29;20231;-92
2023/04/14 08:33:52;;;;;;;29.37;18.60;;;10.50;1.00;;;;;;4880541;29;20236;-92
2023/04/14 08:36:19;;;;;;;25.83;17.23;;;10.50;1.00;;;;;;4880511;29;20642;-90
2023/04/14 08:38:46;;;;;;;27.43;19.10;;;10.50;1.00;;;;;;4880644;29;20588;-92
2023/04/14 08:41:14;;;;;;;30.20;19.07;;;10.40;1.00;;;;;;4883927;29;20228;-90
2023/04/14 08:43:43;;;;;;;25.83;17.23;;;10.40;1.00;;;;;;4883914;29;20217;-91
2023/04/14 08:46:11;;;;;;;31.10;19.07;;;10.50;1.00;;;;;;4883979;29;20737;-91
2023/04/14 08:48:39;;;;;;;27.53;17.90;;;10.50;1.00;;;;;;4883603;29;20200;-92
2023/04/14 08:51:13;;;;;;;28.03;17.83;;;10.40;1.00;;;;;;4883740;29;20243;-90
2023/04/14 08:53:44;;;;;;;30.80;18.87;;;10.40;1.00;;;;;;4884056;29;20228;-92
2023/04/14 08:56:15;;;;;;;25.73;15.23;;;10.40;1.00;;;;;;4884152;29;20273;-90
2023/04/14 08:58:43;;;;;;;29.47;18.77;;;10.40;1.00;;;;;;4870617;29;20192;-91
2023/04/14 09:01:10;;;;;;;27.60;17.87;;;10.40;64.50;;;;;;4872897;29;20235;-90
2023/04/14 09:03:38;;;;;;;31.47;18.30;;;10.30;99.90;;;;;;4883935;29;20204;-92
2023/04/14 09:06:06;;;;;;;35.03;21.57;;;10.30;99.90;;;;;;4883712;29;20231;-91
2023/04/14 09:08:33;;;;;;;32.73;19.70;;;10.30;99.90;;;;;;4883491;29;20203;-92
2023/04/14 09:11:01;;;;;;;34.97;19.30;;;10.40;99.90;;;;;;4883288;29;20211;-92
2023/04/14 09:13:29;;;;;;;31.63;19.37;;;10.40;99.90;;;;;;4883806;29;20634;-92
2023/04/14 09:15:58;;;;;;;29.50;19.47;;;10.40;99.90;;;;;;4883287;29;20200;-92
2023/04/14 09:18:26;;;;;;;35.20;21.17;;;10.40;1.00;;;;;;4883318;29;20756;-91
2023/04/14 09:20:53;;;;;;;32.27;19.60;;;10.50;99.90;;;;;;4883509;29;20224;-90
2023/04/14 09:23:21;;;;;;;28.70;19.20;;;10.60;1.00;;;;;;4883102;29;20243;-91
2023/04/14 09:25:48;;;;;;;29.83;18.70;;;10.60;99.90;;;;;;4883591;29;20203;-93
2023/04/14 09:28:15;;;;;;;30.00;19.57;;;10.70;99.90;;;;;;4883253;29;20659;-92
2023/04/14 09:30:43;;;;;;;33.30;20.50;;;10.70;99.90;;;;;;4888507;29;20220;-92
2023/04/14 09:33:20;;;;;;;28.37;18.43;;;10.70;99.90;;;;;;4902100;29;20211;-91
2023/04/14 09:35:49;;;;;;;33.40;21.90;;;10.80;99.90;;;;;;4902177;29;20274;-91
2023/04/14 09:38:31;;;;;;;35.10;22.30;;;10.80;99.90;;;;;;4901971;29;20241;-91
2023/04/14 09:40:58;;;;;;;35.60;21.57;;;10.90;99.90;;;;;;4901935;29;20245;-92
2023/04/14 09:43:28;;;;;;;35.80;21.70;;;10.90;99.90;;;;;;4898517;29;20231;-92
2023/04/14 09:45:55;;;;;;;35.10;22.00;;;10.90;99.90;;;;;;4883106;29;20226;-93
2023/04/14 09:48:24;;;;;;;33.63;23.03;;;11.00;99.90;;;;;;4883222;29;20636;-91
2023/04/14 09:51:02;;;;;;;32.53;21.60;;;11.10;99.90;;;;;;4882573;29;20267;-92
2023/04/14 09:53:30;;;;;;;37.23;24.43;;;11.20;3.60;;;;;;4882519;29;20242;-91
2023/04/14 09:55:58;;;;;;;35.30;23.17;;;11.30;1.00;;;;;;4882871;29;20232;-93
2023/04/14 09:58:29;;;;;;;33.20;22.77;;;11.50;1.00;;;;;;4882558;29;20206;-92
2023/04/14 10:00:58;;;;;;;31.57;22.60;;;11.50;1.00;;;;;;4882862;29;20301;-91
2023/04/14 10:03:37;;;;;;;36.20;23.00;;;11.60;1.00;;;;;;4882531;29;20194;-92
2023/04/14 10:06:09;;;;;;;32.33;22.67;;;11.80;1.00;;;;;;4882843;29;20267;-92
2023/04/14 10:08:38;;;;;;;36.83;23.17;;;12.10;99.90;;;;;;4882921;29;20259;-91
2023/04/14 10:11:16;;;;;;;32.53;23.03;;;12.20;99.90;;;;;;4882507;29;20246;-92
2023/04/14 10:13:44;;;;;;;33.77;21.03;;;12.30;95.10;;;;;;4882391;29;20204;-93
2023/04/14 10:16:11;;;;;;;30.97;21.03;;;12.40;1.00;;;;;;4882572;29;20282;-93
2023/04/14 10:18:39;;;;;;;35.10;23.67;;;12.60;1.00;;;;;;4882229;29;20736;-92
2023/04/14 10:21:07;;;;;;;38.27;26.63;;;12.80;1.00;;;;;;4882396;29;20228;-94
2023/04/14 10:23:36;;;;;;;32.50;22.37;;;12.90;1.00;;;;;;4882481;29;20265;-94
2023/04/14 10:26:04;;;;;;;40.30;25.50;;;13.00;99.90;;;;;;4882324;29;20236;-92
2023/04/14 10:28:32;;;;;;;31.53;20.53;;;13.00;99.90;;;;;;4882154;29;20207;-92
2023/04/14 10:31:00;;;;;;;30.80;20.37;;;13.00;99.90;;;;;;4882323;29;20232;-91
2023/04/14 10:33:28;;;;;;;32.17;23.27;;;13.00;99.90;;;;;;4882282;29;20231;-92
2023/04/14 10:36:00;;;;;;;30.07;21.33;;;13.00;99.90;;;;;;4881792;29;20212;-92
2023/04/14 10:38:42;;;;;;;27.80;21.00;;;13.10;99.90;;;;;;4863747;29;20284;-92
2023/04/14 10:41:09;;;;;;;28.63;21.10;;;13.20;1.00;;;;;;4863471;29;20231;-92
2023/04/14 10:43:37;;;;;;;28.80;20.70;;;13.30;1.00;;;;;;4876121;29;20267;-92
2023/04/14 10:46:05;;;;;;;29.67;20.97;;;13.30;1.00;;;;;;4881951;29;20205;-92
2023/04/14 10:48:34;;;;;;;27.30;18.53;;;13.30;1.00;;;;;;4882363;29;20205;-92
2023/04/14 10:51:04;;;;;;;29.97;21.60;;;13.40;99.90;;;;;;4882072;29;20231;-92
2023/04/14 10:53:36;;;;;;;27.90;21.33;;;13.30;99.90;;;;;;4863402;29;20281;-92
2023/04/14 10:56:04;;;;;;;27.90;20.53;;;13.30;99.90;;;;;;4878970;29;20209;-91
2023/04/14 10:58:36;;;;;;;25.93;17.67;;;13.30;99.90;;;;;;4881890;29;20240;-92
2023/04/14 11:01:26;;;;;;;29.90;21.43;;;13.30;99.90;;;;;;4881125;29;20317;-92
2023/04/14 11:03:54;;;;;;;31.17;21.83;;;13.30;57.90;;;;;;4881747;29;20618;-92
2023/04/14 11:06:52;;;;;;;29.70;21.83;;;13.40;87.00;;;;;;4881396;29;20669;-94
2023/04/14 11:09:32;;;;;;;33.00;22.23;;;13.50;99.90;;;;;;4880505;29;20727;-92
2023/04/14 11:12:03;;;;;;;30.20;21.23;;;13.70;1.00;;;;;;4862757;29;20648;-92
2023/04/14 11:14:32;;;;;;;31.23;21.87;;;13.60;1.00;;;;;;4862758;29;20226;-92
2023/04/14 11:17:00;;;;;;;28.47;21.80;;;13.70;1.00;;;;;;4863023;29;20208;-92
2023/04/14 11:19:28;;;;;;;30.67;21.40;;;13.70;1.00;;;;;;4869995;29;20234;-92
2023/04/14 11:21:56;;;;;;;29.37;19.37;;;13.70;1.00;;;;;;4881396;29;20229;-93
2023/04/14 11:24:23;;;;;;;31.63;22.53;;;13.80;1.00;;;;;;4881283;29;20331;-92
2023/04/14 11:26:53;;;;;;;28.90;22.00;;;13.90;99.90;;;;;;4881427;29;20235;-92
2023/04/14 11:29:20;;;;;;;31.00;22.27;;;13.90;99.90;;;;;;4881237;29;20210;-92
2023/04/14 11:31:47;;;;;;;33.23;21.60;;;14.00;1.00;;;;;;4891281;29;20233;-92
2023/04/14 11:34:14;;;;;;;27.60;20.63;;;14.10;1.00;;;;;;4889874;29;20241;-93
2023/04/14 11:36:41;;;;;;;28.23;21.90;;;14.20;99.90;;;;;;4881176;29;20207;-91
2023/04/14 11:39:10;;;;;;;27.70;21.53;;;14.30;99.90;;;;;;4880650;29;20241;-92
2023/04/14 11:41:37;;;;;;;27.30;20.67;;;14.30;99.90;;;;;;4880962;29;20280;-93
2023/04/14 11:44:04;;;;;;;32.87;23.63;;;14.40;99.50;;;;;;4881599;29;20282;-93
2023/04/14 11:46:32;;;;;;;29.40;22.30;;;14.50;99.90;;;;;;4880874;29;20615;-94
2023/04/14 11:48:59;;;;;;;28.75;21.52;;;14.60;99.90;;;;;;4881113;29;20240;-94
2023/04/14 11:51:31;;;;;;;26.27;20.60;;;14.80;1.00;;;;;;4880609;29;20196;-92
2023/04/14 11:53:59;;;;;;;27.33;21.20;;;15.00;1.00;;;;;;4881169;29;20209;-92
2023/04/14 11:56:27;;;;;;;27.43;21.23;;;15.20;1.00;;;;;;4862672;29;20203;-93
2023/04/14 11:59:01;;;;;;;27.00;21.33;;;15.50;1.00;;;;;;4862721;29;20209;-93
2023/04/14 12:01:29;;;;;;;25.38;20.27;;;15.80;1.00;;;;;;4871634;29;20274;-93
2023/04/14 12:03:56;;;;;;;26.90;20.85;;;16.00;99.90;;;;;;4880956;29;20200;-94
2023/04/14 12:06:25;;;;;;;28.52;22.50;;;16.20;99.90;;;;;;4880956;29;20241;-93
2023/04/14 12:08:53;;;;;;;30.52;20.42;;;16.50;99.90;;;;;;4881078;29;20565;-94
2023/04/14 12:11:20;;;;;;;24.17;19.85;;;16.70;1.00;;;;;;4881365;29;20202;-93
2023/04/14 12:13:49;;;;;;;23.10;19.15;;;17.00;1.00;;;;;;4883784;29;20245;-95
2023/04/14 12:16:17;;;;;;;25.92;20.65;;;17.30;1.00;;;;;;4885912;29;20214;-93
2023/04/14 12:18:44;;;;;;;28.40;19.33;;;17.40;99.90;;;;;;4885575;29;20723;-93
2023/04/14 12:21:16;;;;;;;25.02;18.75;;;17.30;99.90;;;;;;4885687;29;20233;-94
2023/04/14 12:23:47;;;;;;;25.80;19.38;;;17.20;99.90;;;;;;4886234;29;20257;-93
2023/04/14 12:26:15;;;;;;;25.92;19.63;;;17.10;1.00;;;;;;4886763;29;20237;-94
2023/04/14 12:28:42;;;;;;;33.25;20.30;;;16.80;61.00;;;;;;4887348;29;20208;-93
2023/04/14 12:31:11;;;;;;;24.23;19.67;;;16.60;99.90;;;;;;4887409;29;20190;-93
2023/04/14 12:33:38;;;;;;;25.77;19.77;;;16.40;99.90;;;;;;4886379;29;20615;-93
2023/04/14 12:36:06;;;;;;;24.40;19.83;;;16.30;99.90;;;;;;4886211;29;20675;-93
2023/04/14 12:38:34;;;;;;;26.25;20.30;;;16.10;99.90;;;;;;4884544;29;20635;-93
2023/04/14 12:41:01;;;;;;;27.63;19.75;;;16.00;99.90;;;;;;4884218;29;20225;-93
2023/04/14 12:43:30;;;;;;;22.85;19.50;;;15.90;1.00;;;;;;4885114;29;20209;-94
2023/04/14 12:45:58;;;;;;;33.58;25.75;;;15.80;1.00;;;;;;4886815;29;20210;-94
2023/04/14 12:48:42;;;;;;;25.33;20.38;;;15.90;1.00;;;;;;4886444;29;20587;-93
2023/04/14 12:51:11;;;;;;;27.25;20.30;;;16.00;1.00;;;;;;4885687;29;20232;-95
2023/04/14 12:53:39;;;;;;;23.92;18.92;;;16.00;99.90;;;;;;4885914;29;20802;-94
2023/04/14 12:56:11;;;;;;;24.70;20.23;;;16.00;99.90;;;;;;4887146;29;20210;-93
2023/04/14 12:58:39;;;;;;;23.90;19.92;;;15.90;99.90;;;;;;4886884;29;20198;-93
2023/04/14 13:01:07;;;;;;;25.02;19.45;;;15.80;1.00;;;;;;4877920;29;20289;-94
2023/04/14 13:03:44;;;;;;;23.52;19.13;;;15.70;1.00;;;;;;4870665;29;20301;-93
2023/04/14 13:06:15;;;;;;;23.97;18.87;;;15.50;1.00;;;;;;4885175;29;20700;-94
2023/04/14 13:08:46;;;;;;;30.95;20.88;;;15.40;1.00;;;;;;4886742;29;20216;-95
2023/04/14 13:11:13;;;;;;;28.77;21.58;;;15.20;1.00;;;;;;4888062;29;20265;-94
2023/04/14 13:13:40;;;;;;;25.45;20.08;;;15.30;1.00;;;;;;4887288;29;20209;-93
2023/04/14 13:16:08;;;;;;;27.02;19.60;;;15.40;17.20;;;;;;4888425;29;20264;-94
2023/04/14 13:18:35;;;;;;;25.67;19.67;;;15.50;1.00;;;;;;4887586;29;20265;-95
2023/04/14 13:21:04;;;;;;;26.67;20.73;;;15.60;1.00;;;;;;4874074;29;20732;-94
2023/04/14 13:23:32;;;;;;;24.98;18.60;;;15.70;1.00;;;;;;4873171;29;20211;-94
2023/04/14 13:25:59;;;;;;;26.13;21.25;;;15.80;1.00;;;;;;4888799;29;20202;-95
2023/04/14 13:28:27;;;;;;;25.77;20.35;;;15.70;1.00;;;;;;4890841;29;20195;-95
2023/04/14 13:30:56;;;;;;;28.73;20.73;;;15.80;1.00;;;;;;4894855;29;20267;-95
2023/04/14 13:33:25;;;;;;;27.92;20.55;;;15.80;1.00;;;;;;4913421;29;20205;-95
2023/04/14 13:35:54;;;;;;;32.40;21.45;;;15.80;1.00;;;;;;4914035;29;20265;-95
2023/04/14 13:38:22;;;;;;;23.38;19.98;;;15.80;1.00;;;;;;4895130;29;20212;-94
2023/04/14 13:40:49;;;;;;;27.50;21.10;;;15.90;1.00;;;;;;4893391;29;20282;-95
2023/04/14 13:43:18;;;;;;;24.75;20.40;;;16.00;1.00;;;;;;4891830;29;20206;-95
2023/04/14 13:45:45;;;;;;;26.55;19.25;;;16.10;1.00;;;;;;4894066;29;20228;-95
2023/04/14 13:48:12;;;;;;;26.55;20.27;;;16.10;1.00;;;;;;4887523;29;20207;-93
2023/04/14 13:50:39;;;;;;;28.50;20.20;;;16.20;1.00;;;;;;4884215;29;20219;-95
2023/04/14 13:53:06;;;;;;;23.55;18.83;;;16.20;1.00;;;;;;4884183;29;20217;-94
2023/04/14 13:55:35;;;;;;;23.85;18.98;;;16.20;1.00;;;;;;4884279;29;20207;-94
2023/04/14 13:58:02;;;;;;;26.35;20.52;;;16.20;1.00;;;;;;4884044;29;20298;-95
2023/04/14 14:00:29;;;;;;;28.52;18.23;;;16.20;1.00;;;;;;4877620;29;20199;-94
2023/04/14 14:02:56;;;;;;;26.80;19.60;;;16.20;1.00;;;;;;4883990;29;20286;-94
2023/04/14 14:05:23;;;;;;;27.77;20.50;;;16.20;1.00;;;;;;4883691;29;20664;-93
2023/04/14 14:07:50;;;;;;;26.92;19.67;;;16.00;1.00;;;;;;4884953;29;20273;-94
2023/04/14 14:10:17;;;;;;;34.10;25.48;;;16.00;1.00;;;;;;4887986;29;20274;-94
2023/04/14 14:12:46;;;;;;;34.72;24.27;;;16.00;1.00;;;;;;4888015;29;20202;-96
2023/04/14 14:15:13;;;;;;;37.03;26.60;;;16.00;1.00;;;;;;4888781;29;20232;-95
2023/04/14 14:17:44;;;;;;;45.72;31.08;;;16.20;1.00;;;;;;4885163;29;20234;-93
2023/04/14 14:20:11;;;;;;;49.03;31.35;;;16.10;1.00;;;;;;4892279;29;20195;-95
2023/04/14 14:22:39;;;;;;;33.28;23.20;;;16.10;1.00;;;;;;4892980;29;20755;-95
2023/04/14 14:25:07;;;;;;;39.63;27.00;;;16.20;1.00;;;;;;4905968;23;20207;-94
2023/04/14 14:27:34;;;;;;;43.17;31.00;;;16.20;1.00;;;;;;4951451;29;20217;-96
2023/04/14 14:30:03;;;;;;;41.55;30.17;;;16.30;1.00;;;;;;4934363;29;20205;-96
2023/04/14 14:32:30;;;;;;;32.40;22.23;;;16.40;99.90;;;;;;4953351;29;20217;-95
2023/04/14 14:34:57;;;;;;;27.40;21.02;;;16.50;99.90;;;;;;4951828;29;20642;-96
2023/04/14 14:37:24;;;;;;;26.25;19.88;;;16.60;99.90;;;;;;4943972;29;20272;-95
2023/04/14 14:39:51;;;;;;;25.13;20.85;;;16.60;99.90;;;;;;4945516;29;20201;-93
2023/04/14 14:42:18;;;;;;;26.05;20.95;;;16.60;99.90;;;;;;4943653;29;20217;-96
2023/04/14 14:44:45;;;;;;;25.83;21.10;;;16.60;39.40;;;;;;4943127;29;20200;-96
2023/04/14 14:47:13;;;;;;;26.83;21.17;;;16.50;10.10;;;;;;4940703;29;20216;-95
2023/04/14 14:49:40;;;;;;;26.80;21.40;;;16.50;4.00;;;;;;4940549;29;20197;-95
2023/04/14 14:52:07;;;;;;;26.83;20.75;;;16.40;1.00;;;;;;4940594;29;20201;-94
2023/04/14 14:54:35;;;;;;;27.02;20.63;;;16.20;1.00;;;;;;4940061;29;20209;-95
2023/04/14 14:57:02;;;;;;;27.02;20.35;;;15.90;26.90;;;;;;4940281;29;20256;-95
2023/04/14 14:59:29;;;;;;;29.95;23.65;;;15.80;99.90;;;;;;4941253;29;20204;-96
2023/04/14 15:01:56;;;;;;;26.17;20.60;;;15.60;99.90;;;;;;4934069;29;20309;-95
2023/04/14 15:04:25;;;;;;;28.83;21.10;;;15.50;99.90;;;;;;4930955;29;20208;-96
2023/04/14 15:06:52;;;;;;;26.40;21.90;;;15.40;99.90;;;;;;4940032;29;20207;-96
2023/04/14 15:09:19;;;;;;;27.60;20.23;;;15.40;1.00;;;;;;4940922;29;20200;-95
2023/04/14 15:11:46;;;;;;;27.35;20.75;;;15.40;1.00;;;;;;4931592;29;20198;-95
2023/04/14 15:14:13;;;;;;;26.35;21.45;;;15.50;1.00;;;;;;4934219;29;20196;-96
2023/04/14 15:16:40;;;;;;;26.27;21.17;;;15.60;1.00;;;;;;4945026;29;20210;-95
2023/04/14 15:19:07;;;;;;;25.88;20.30;;;15.80;1.00;;;;;;4944143;29;20211;-96
2023/04/14 15:21:36;;;;;;;25.88;18.42;;;16.00;99.90;;;;;;4949350;29;20227;-95
2023/04/14 15:24:04;;;;;;;25.45;20.92;;;16.10;99.90;;;;;;4955586;29;20193;-95
2023/04/14 15:26:31;;;;;;;25.02;20.10;;;16.20;99.90;;;;;;4951362;29;20228;-95
2023/04/14 15:28:58;;;;;;;25.33;20.35;;;16.30;94.30;;;;;;4950783;29;20211;-95
2023/04/14 15:31:25;;;;;;;25.33;20.10;;;16.30;1.00;;;;;;4950279;29;20201;-95
2023/04/14 15:33:53;;;;;;;26.00;20.40;;;16.30;12.60;;;;;;4951642;29;20219;-95
2023/04/14 15:36:21;;;;;;;28.05;19.63;;;16.30;88.00;;;;;;4950805;29;20579;-96
2023/04/14 15:38:49;;;;;;;24.98;20.55;;;16.20;99.90;;;;;;4949229;29;20213;-95
2023/04/14 15:41:16;;;;;;;28.95;20.63;;;16.20;99.90;;;;;;4949560;29;20225;-96
2023/04/14 15:43:43;;;;;;;29.45;21.08;;;16.10;99.90;;;;;;4941970;29;20205;-95
2023/04/14 15:46:10;;;;;;;30.92;21.85;;;16.00;99.90;;;;;;4934965;29;20208;-96
2023/04/14 15:48:37;;;;;;;26.65;20.60;;;15.90;99.90;;;;;;4940228;29;20282;-95
2023/04/14 15:51:05;;;;;;;26.92;19.98;;;15.80;99.90;;;;;;4939679;29;20209;-94
2023/04/14 15:53:33;;;;;;;25.38;20.27;;;15.70;99.90;;;;;;4939913;29;20204;-95
2023/04/14 15:56:01;;;;;;;26.88;20.02;;;15.70;1.00;;;;;;4938967;29;20209;-93
2023/04/14 15:58:30;;;;;;;25.30;19.60;;;15.60;1.00;;;;;;4937728;29;20208;-94
2023/04/14 16:00:57;;;;;;;24.70;19.95;;;15.60;1.00;;;;;;4937456;29;20204;-94
2023/04/14 16:03:24;;;;;;;27.30;20.83;;;15.60;1.00;;;;;;4937365;29;20208;-94
2023/04/14 16:05:59;;;;;;;34.30;25.10;;;15.60;1.00;;;;;;4937588;29;20239;-93
2023/04/14 16:08:26;;;;;;;34.70;27.48;;;15.50;1.00;;;;;;4937030;29;20617;-94
2023/04/14 16:10:53;;;;;;;29.38;22.95;;;15.40;1.00;;;;;;4937472;29;20203;-94
2023/04/14 16:13:21;;;;;;;30.25;20.58;;;15.40;1.00;;;;;;4936695;29;20262;-94
2023/04/14 16:15:48;;;;;;;31.63;23.35;;;15.20;1.00;;;;;;4936833;29;20235;-94
2023/04/14 16:18:15;;;;;;;31.75;24.98;;;15.10;1.00;;;;;;4936504;29;20223;-94
2023/04/14 16:20:42;;;;;;;37.25;26.20;;;15.00;1.00;;;;;;4936934;29;20679;-95
2023/04/14 16:23:09;;;;;;;32.17;23.65;;;14.90;68.60;;;;;;4936389;29;20218;-93
2023/04/14 16:25:36;;;;;;;26.67;21.20;;;14.80;99.90;;;;;;4936420;29;20252;-94
2023/04/14 16:28:03;;;;;;;28.90;22.83;;;14.70;99.90;;;;;;4937246;29;20210;-94
2023/04/14 16:30:31;;;;;;;33.83;23.75;;;14.60;1.00;;;;;;4936892;29;20227;-94
2023/04/14 16:32:58;;;;;;;32.33;22.80;;;14.50;1.00;;;;;;4938176;29;20610;-95
2023/04/14 16:35:25;;;;;;;37.35;25.75;;;14.50;1.00;;;;;;4938096;29;20233;-96
2023/04/14 16:37:52;;;;;;;30.15;23.23;;;14.40;1.00;;;;;;4948237;23;20319;-94
2023/04/14 16:40:19;;;;;;;28.17;22.40;;;14.40;1.00;;;;;;4922798;29;20188;-95
2023/04/14 16:42:47;;;;;;;27.57;23.00;;;14.30;99.90;;;;;;4924546;29;20240;-95
2023/04/14 16:45:14;;;;;;;29.40;22.00;;;14.20;99.90;;;;;;4925005;29;20204;-95
2023/04/14 16:47:42;;;;;;;28.83;22.35;;;14.20;99.90;;;;;;4932068;29;20205;-95
2023/04/14 16:50:10;;;;;;;28.08;21.23;;;14.10;1.00;;;;;;4923334;29;20199;-95
2023/04/14 16:52:37;;;;;;;27.87;21.90;;;14.10;1.00;;;;;;4920828;29;20198;-94
2023/04/14 16:55:05;;;;;;;29.45;21.25;;;14.10;1.00;;;;;;4917637;29;20269;-94
2023/04/14 16:57:32;;;;;;;31.05;22.42;;;14.00;1.00;;;;;;4933068;29;20194;-94
2023/04/14 16:59:59;;;;;;;27.92;22.73;;;14.00;1.00;;;;;;4923920;29;20260;-94
2023/04/14 17:02:26;;;;;;;29.63;21.65;;;14.00;1.00;;;;;;4926710;29;20225;-94
2023/04/14 17:04:55;;;;;;;28.87;21.37;;;14.00;40.60;;;;;;4924661;29;20660;-94
2023/04/14 17:07:22;;;;;;;27.07;21.33;;;13.90;99.90;;;;;;4924149;29;20293;-95
2023/04/14 17:09:49;;;;;;;28.67;22.17;;;13.90;99.90;;;;;;4923895;29;20254;-94
2023/04/14 17:12:16;;;;;;;27.37;21.30;;;13.90;99.90;;;;;;4928134;29;20703;-95
2023/04/14 17:14:43;;;;;;;28.40;20.27;;;13.90;99.90;;;;;;4931860;29;20202;-93
2023/04/14 17:17:10;;;;;;;25.83;20.23;;;13.80;99.90;;;;;;4925684;29;20213;-95
2023/04/14 17:19:37;;;;;;;26.47;19.40;;;13.80;1.00;;;;;;4929609;29;20255;-94
2023/04/14 17:22:06;;;;;;;24.57;18.13;;;13.80;1.00;;;;;;4930227;29;20251;-95
2023/04/14 17:24:33;;;;;;;21.57;17.43;;;13.90;99.90;;;;;;4916553;29;20263;-95
2023/04/14 17:27:01;;;;;;;19.10;15.80;;;13.90;99.90;;;;;;4942179;29;20198;-95
2023/04/14 17:29:28;;;;;;;18.57;14.70;;;13.90;99.90;;;;;;4933457;29;20223;-94
2023/04/14 17:31:55;;;;;;;18.17;13.88;;;13.90;1.00;;;;;;4928989;29;20223;-95
2023/04/14 17:34:22;;;;;;;17.90;14.17;;;13.90;1.00;;;;;;4935147;29;20221;-95
2023/04/14 17:36:50;;;;;;;16.07;13.17;;;13.90;1.00;;;;;;4930579;29;20233;-95
2023/04/14 17:39:20;;;;;;;15.03;11.67;;;13.90;99.90;;;;;;4927688;29;20648;-95
2023/04/14 17:41:48;;;;;;;13.53;10.20;;;13.90;99.90;;;;;;4927302;29;20316;-93
2023/04/14 17:44:15;;;;;;;10.50;9.40;;;13.80;1.00;;;;;;4920814;29;20575;-95
2023/04/14 17:46:44;;;;;;;11.13;9.57;;;13.80;1.00;;;;;;4919193;29;20197;-95
2023/04/14 17:49:11;;;;;;;11.17;9.40;;;13.80;1.00;;;;;;4925674;29;20671;-96
2023/04/14 17:51:38;;;;;;;11.83;9.27;;;13.80;1.00;;;;;;4920282;29;20708;-95
2023/04/14 17:54:05;;;;;;;11.90;8.97;;;13.70;99.90;;;;;;4925580;29;20201;-95
2023/04/14 17:56:34;;;;;;;14.37;9.43;;;13.70;99.90;;;;;;4919365;29;20253;-94